Impacts TAF Board INFO
FOR SITUATIONAL AWARENESS. NOT TO BE USED FOR FLIGHT PLANNING PURPOSES.
IDs:

KLGA - New York/La Guardia, NY, US

Issued at 1249 UTC 15 Dec 2017
Updated at 1402 UTC 15 Dec 2017
Potential Impact None Slight Moderate High
Time1351Z 15/15Z 15/16Z 15/17Z 15/18Z 15/19Z 15/20Z 15/21Z 15/22Z 15/23Z 16/00Z 16/01Z 16/02Z 16/03Z>>
Type OBS PRVL PRVL PRVL PRVL PRVL PRVL
  [TEMP]  
PRVL
  [TEMP]  
PRVL
  [TEMP]  
PRVL
  [TEMP]  
PRVL PRVL PRVL PRVL
VIS 10 >6 >6 >6 >6 >6 2
  [0.5]  
2
  [0.5]  
2
  [0.5]  
2
  [0.5]  
2 2 >6 >6
CIG 130 150 150 50 50 50 25
  [15]  
25
  [15]  
25
  [15]  
25
  [15]  
25 25 70 70
Cover OVC BKN BKN BKN BKN BKN OVC
  [BKN]  
OVC
  [BKN]  
OVC
  [BKN]  
OVC
  [BKN]  
OVC OVC BKN BKN
FltCat VFR VFR VFR VFR VFR VFR IFR
  [LIFR]  
IFR
  [LIFR]  
IFR
  [LIFR]  
IFR
  [LIFR]  
IFR IFR VFR VFR
WX -- -- -- -- -- -- -SN
  [SN]  
-SN
  [SN]  
-SN
  [SN]  
-SN
  [SN]  
-SN -SN -- --
WDir VRB VRB VRB 240 240 240 260
[260]
260
[260]
260
[260]
260
[260]
260 260 270 270
WSpd 0 5 5 5 5 5 6
  [6]  
6
  [6]  
6
  [6]  
6
  [6]  
6 6 9 9
WGst -- -- -- -- -- -- --
  [--]  
--
  [--]  
--
  [--]  
--
  [--]  
-- -- -- --

Raw TAF
KLGA 151249Z 1513/1618 VRB05KT P6SM SCT250
  FM151500 VRB05KT P6SM FEW040 BKN150
  FM151700 24005KT P6SM SCT030 BKN050
  FM152000 26006KT 2SM -SN SCT015 OVC025
  TEMPO 1520/1524 1/2SM SN BKN015
  FM160200 27009KT P6SM SCT035 BKN070
  FM160400 28011KT P6SM SCT150
  FM160700 27014G20KT P6SM FEW070 FEW250
  FM161500 27017G25KT P6SM FEW250


Raw METAR
KLGA 151351Z 00000KT 10SM OVC130 M04/M12 A3012 RMK AO2 SLP199 T10391122 $
KLGA 151251Z 36003KT 10SM BKN120 OVC200 M04/M13 A3011 RMK AO2 SLP196 T10441128 $
KLGA 151151Z 00000KT 10SM SCT140 BKN200 M05/M13 A3011 RMK AO2 SLP197 4/001 70002 T10501128 11044 21050 53006 $

METAR Board
Radar Display
Forecast Discussion

FOR SITUATIONAL AWARENESS. NOT TO BE USED FOR FLIGHT PLANNING PURPOSES.